Mesa, Arizona
Current Conditions -  °F | °C
As of 6:47 PM on Tuesday 25 Nov 2014 (Local Time) from KFFZ Reporting Station
Clear Clear  
Wind Chill: 61°   Ceiling: Unl
Heat Index: 61°   Visibility: 30mi
Dew Point:   Wind: 7mph
Humidity: 10%   Direction: 160°SSE
Pressure: 30.29"   Gusts: NA
Location:  33.42°N, 111.83°W
Report Text: KFFZ 260147Z 16006KT 30SM SKC 16/M16 A3029 RMK ESTIMATED
Loading
Personal Weather Stations






























Interactive Weather Map New forecast layout! Learn more

10-Day Weather Forecast

Advertisements
Track Severe Weather on mobile